sensor_id;sensor_type;location;lat;lon;timestamp;P1;durP1;ratioP1;P2;durP2;ratioP2
32864;SDS011;19219;44.500;11.188;2023-04-06T00:01:27;7.38;;;5.13;;
32864;SDS011;19219;44.500;11.188;2023-04-06T00:03:53;8.65;;;5.07;;
32864;SDS011;19219;44.500;11.188;2023-04-06T00:06:18;4.80;;;4.28;;
32864;SDS011;19219;44.500;11.188;2023-04-06T00:08:45;8.60;;;4.85;;
32864;SDS011;19219;44.500;11.188;2023-04-06T00:11:10;7.93;;;5.13;;
32864;SDS011;19219;44.500;11.188;2023-04-06T00:13:36;9.52;;;4.82;;
32864;SDS011;19219;44.500;11.188;2023-04-06T00:16:02;7.45;;;4.82;;
32864;SDS011;19219;44.500;11.188;2023-04-06T00:18:30;7.82;;;5.57;;
32864;SDS011;19219;44.500;11.188;2023-04-06T00:20:56;9.40;;;5.72;;
32864;SDS011;19219;44.500;11.188;2023-04-06T00:23:22;5.72;;;4.30;;
32864;SDS011;19219;44.500;11.188;2023-04-06T00:25:48;11.45;;;5.40;;
32864;SDS011;19219;44.500;11.188;2023-04-06T00:28:13;8.55;;;4.88;;
32864;SDS011;19219;44.500;11.188;2023-04-06T00:30:40;7.60;;;4.82;;
32864;SDS011;19219;44.500;11.188;2023-04-06T00:33:06;7.30;;;5.05;;
32864;SDS011;19219;44.500;11.188;2023-04-06T00:35:31;6.75;;;4.97;;
32864;SDS011;19219;44.500;11.188;2023-04-06T00:37:57;9.68;;;5.35;;
32864;SDS011;19219;44.500;11.188;2023-04-06T00:40:23;13.73;;;5.47;;
32864;SDS011;19219;44.500;11.188;2023-04-06T00:42:49;8.10;;;4.80;;
32864;SDS011;19219;44.500;11.188;2023-04-06T00:45:15;6.10;;;4.70;;
32864;SDS011;19219;44.500;11.188;2023-04-06T00:47:40;5.95;;;4.80;;
32864;SDS011;19219;44.500;11.188;2023-04-06T00:50:06;7.25;;;4.32;;
32864;SDS011;19219;44.500;11.188;2023-04-06T00:52:33;8.30;;;4.22;;
32864;SDS011;19219;44.500;11.188;2023-04-06T00:55:00;8.27;;;4.88;;
32864;SDS011;19219;44.500;11.188;2023-04-06T00:57:26;9.32;;;4.47;;
32864;SDS011;19219;44.500;11.188;2023-04-06T00:59:52;5.60;;;4.10;;
32864;SDS011;19219;44.500;11.188;2023-04-06T01:02:18;71.78;;;28.58;;
32864;SDS011;19219;44.500;11.188;2023-04-06T01:04:44;25.15;;;12.52;;
32864;SDS011;19219;44.500;11.188;2023-04-06T01:07:10;7.30;;;5.03;;
32864;SDS011;19219;44.500;11.188;2023-04-06T01:09:35;7.90;;;5.00;;
32864;SDS011;19219;44.500;11.188;2023-04-06T01:12:01;7.05;;;4.40;;
32864;SDS011;19219;44.500;11.188;2023-04-06T01:14:28;7.93;;;3.75;;
32864;SDS011;19219;44.500;11.188;2023-04-06T01:16:54;7.75;;;4.57;;
32864;SDS011;19219;44.500;11.188;2023-04-06T01:19:22;7.07;;;4.55;;
32864;SDS011;19219;44.500;11.188;2023-04-06T01:21:48;3.63;;;3.30;;
32864;SDS011;19219;44.500;11.188;2023-04-06T01:24:15;56.35;;;27.45;;
32864;SDS011;19219;44.500;11.188;2023-04-06T01:26:41;20.00;;;9.30;;
32864;SDS011;19219;44.500;11.188;2023-04-06T01:29:07;9.23;;;5.05;;
32864;SDS011;19219;44.500;11.188;2023-04-06T01:31:33;4.65;;;3.63;;
32864;SDS011;19219;44.500;11.188;2023-04-06T01:33:59;6.57;;;4.20;;
32864;SDS011;19219;44.500;11.188;2023-04-06T01:36:25;5.70;;;4.00;;
32864;SDS011;19219;44.500;11.188;2023-04-06T01:38:51;7.75;;;4.38;;
32864;SDS011;19219;44.500;11.188;2023-04-06T01:41:17;8.18;;;3.90;;
32864;SDS011;19219;44.500;11.188;2023-04-06T01:43:43;10.77;;;3.90;;
32864;SDS011;19219;44.500;11.188;2023-04-06T01:46:09;4.22;;;3.63;;
32864;SDS011;19219;44.500;11.188;2023-04-06T01:48:35;9.02;;;3.78;;
32864;SDS011;19219;44.500;11.188;2023-04-06T01:51:01;7.07;;;4.68;;
32864;SDS011;19219;44.500;11.188;2023-04-06T01:53:27;6.07;;;3.58;;
32864;SDS011;19219;44.500;11.188;2023-04-06T01:55:53;5.45;;;3.50;;
32864;SDS011;19219;44.500;11.188;2023-04-06T01:58:18;7.68;;;3.67;;
32864;SDS011;19219;44.500;11.188;2023-04-06T02:00:44;4.10;;;3.40;;
32864;SDS011;19219;44.500;11.188;2023-04-06T02:03:09;5.57;;;3.85;;
32864;SDS011;19219;44.500;11.188;2023-04-06T02:05:35;8.80;;;4.45;;
32864;SDS011;19219;44.500;11.188;2023-04-06T02:08:05;5.72;;;3.83;;
32864;SDS011;19219;44.500;11.188;2023-04-06T02:10:32;4.70;;;3.70;;
32864;SDS011;19219;44.500;11.188;2023-04-06T02:12:58;5.10;;;3.63;;
32864;SDS011;19219;44.500;11.188;2023-04-06T02:15:24;7.68;;;4.13;;
32864;SDS011;19219;44.500;11.188;2023-04-06T02:17:50;6.90;;;4.50;;
32864;SDS011;19219;44.500;11.188;2023-04-06T02:20:16;6.93;;;3.50;;
32864;SDS011;19219;44.500;11.188;2023-04-06T02:22:42;5.18;;;3.72;;
32864;SDS011;19219;44.500;11.188;2023-04-06T02:25:08;7.25;;;4.50;;
32864;SDS011;19219;44.500;11.188;2023-04-06T02:27:34;5.80;;;3.58;;
32864;SDS011;19219;44.500;11.188;2023-04-06T02:30:01;4.53;;;4.07;;
32864;SDS011;19219;44.500;11.188;2023-04-06T02:32:30;5.97;;;3.60;;
32864;SDS011;19219;44.500;11.188;2023-04-06T02:34:56;6.70;;;4.13;;
32864;SDS011;19219;44.500;11.188;2023-04-06T02:37:21;6.28;;;4.10;;
32864;SDS011;19219;44.500;11.188;2023-04-06T02:39:49;7.43;;;4.60;;
32864;SDS011;19219;44.500;11.188;2023-04-06T02:42:15;4.50;;;3.45;;
32864;SDS011;19219;44.500;11.188;2023-04-06T02:44:43;5.32;;;3.63;;
32864;SDS011;19219;44.500;11.188;2023-04-06T02:47:09;5.35;;;3.90;;
32864;SDS011;19219;44.500;11.188;2023-04-06T02:49:35;6.97;;;3.75;;
32864;SDS011;19219;44.500;11.188;2023-04-06T02:52:01;6.05;;;3.83;;
32864;SDS011;19219;44.500;11.188;2023-04-06T02:54:27;3.67;;;3.33;;
32864;SDS011;19219;44.500;11.188;2023-04-06T02:56:53;5.35;;;3.92;;
32864;SDS011;19219;44.500;11.188;2023-04-06T02:59:19;6.47;;;4.30;;
32864;SDS011;19219;44.500;11.188;2023-04-06T03:01:44;5.97;;;3.45;;
32864;SDS011;19219;44.500;11.188;2023-04-06T03:04:10;5.30;;;4.10;;
32864;SDS011;19219;44.500;11.188;2023-04-06T03:06:36;7.90;;;4.05;;
32864;SDS011;19219;44.500;11.188;2023-04-06T03:09:02;4.57;;;3.50;;
32864;SDS011;19219;44.500;11.188;2023-04-06T03:11:27;4.53;;;3.75;;
32864;SDS011;19219;44.500;11.188;2023-04-06T03:13:53;7.85;;;4.22;;
32864;SDS011;19219;44.500;11.188;2023-04-06T03:16:19;6.38;;;3.63;;
32864;SDS011;19219;44.500;11.188;2023-04-06T03:18:45;5.82;;;3.67;;
32864;SDS011;19219;44.500;11.188;2023-04-06T03:21:12;6.07;;;3.85;;
32864;SDS011;19219;44.500;11.188;2023-04-06T03:23:40;7.22;;;3.33;;
32864;SDS011;19219;44.500;11.188;2023-04-06T03:26:05;5.60;;;3.80;;
32864;SDS011;19219;44.500;11.188;2023-04-06T03:28:31;5.78;;;4.00;;
32864;SDS011;19219;44.500;11.188;2023-04-06T03:30:57;8.07;;;4.00;;
32864;SDS011;19219;44.500;11.188;2023-04-06T03:33:22;9.07;;;4.55;;
32864;SDS011;19219;44.500;11.188;2023-04-06T03:35:48;5.38;;;3.83;;
32864;SDS011;19219;44.500;11.188;2023-04-06T03:38:14;4.50;;;3.53;;
32864;SDS011;19219;44.500;11.188;2023-04-06T03:40:40;5.63;;;3.17;;
32864;SDS011;19219;44.500;11.188;2023-04-06T03:43:05;8.07;;;3.90;;
32864;SDS011;19219;44.500;11.188;2023-04-06T03:45:31;7.50;;;3.78;;
32864;SDS011;19219;44.500;11.188;2023-04-06T03:47:57;3.92;;;3.08;;
32864;SDS011;19219;44.500;11.188;2023-04-06T03:50:22;7.45;;;3.67;;
32864;SDS011;19219;44.500;11.188;2023-04-06T03:52:48;6.97;;;4.10;;
32864;SDS011;19219;44.500;11.188;2023-04-06T03:55:16;6.88;;;3.28;;
32864;SDS011;19219;44.500;11.188;2023-04-06T03:57:44;5.80;;;3.42;;
32864;SDS011;19219;44.500;11.188;2023-04-06T04:00:15;6.72;;;3.78;;
32864;SDS011;19219;44.500;11.188;2023-04-06T04:02:41;4.93;;;3.45;;
32864;SDS011;19219;44.500;11.188;2023-04-06T04:05:07;8.20;;;4.07;;
32864;SDS011;19219;44.500;11.188;2023-04-06T04:07:33;5.70;;;3.03;;
32864;SDS011;19219;44.500;11.188;2023-04-06T04:09:59;8.18;;;3.78;;
32864;SDS011;19219;44.500;11.188;2023-04-06T04:12:25;6.35;;;3.78;;
32864;SDS011;19219;44.500;11.188;2023-04-06T04:14:53;7.80;;;3.75;;
32864;SDS011;19219;44.500;11.188;2023-04-06T04:17:19;4.55;;;3.28;;
32864;SDS011;19219;44.500;11.188;2023-04-06T04:19:45;7.07;;;3.45;;
32864;SDS011;19219;44.500;11.188;2023-04-06T04:22:10;8.18;;;3.78;;
32864;SDS011;19219;44.500;11.188;2023-04-06T04:24:36;5.57;;;3.47;;
32864;SDS011;19219;44.500;11.188;2023-04-06T04:27:01;65.20;;;24.80;;
32864;SDS011;19219;44.500;11.188;2023-04-06T04:29:27;7.85;;;4.78;;
32864;SDS011;19219;44.500;11.188;2023-04-06T04:31:53;4.60;;;3.85;;
32864;SDS011;19219;44.500;11.188;2023-04-06T04:34:19;9.45;;;4.82;;
32864;SDS011;19219;44.500;11.188;2023-04-06T04:36:45;15.23;;;8.20;;
32864;SDS011;19219;44.500;11.188;2023-04-06T04:39:11;4.78;;;3.70;;
32864;SDS011;19219;44.500;11.188;2023-04-06T04:41:37;7.53;;;4.63;;
32864;SDS011;19219;44.500;11.188;2023-04-06T04:44:03;10.45;;;3.80;;
32864;SDS011;19219;44.500;11.188;2023-04-06T04:46:28;9.20;;;3.60;;
32864;SDS011;19219;44.500;11.188;2023-04-06T04:48:54;8.98;;;5.97;;
32864;SDS011;19219;44.500;11.188;2023-04-06T04:51:20;7.03;;;4.78;;
32864;SDS011;19219;44.500;11.188;2023-04-06T04:53:46;10.82;;;5.40;;
32864;SDS011;19219;44.500;11.188;2023-04-06T04:56:11;7.32;;;4.35;;
32864;SDS011;19219;44.500;11.188;2023-04-06T04:58:37;6.30;;;4.43;;
32864;SDS011;19219;44.500;11.188;2023-04-06T05:01:03;6.82;;;4.32;;
32864;SDS011;19219;44.500;11.188;2023-04-06T05:03:29;4.30;;;3.90;;
32864;SDS011;19219;44.500;11.188;2023-04-06T05:05:54;7.40;;;3.72;;
32864;SDS011;19219;44.500;11.188;2023-04-06T05:08:20;5.53;;;3.83;;
32864;SDS011;19219;44.500;11.188;2023-04-06T05:10:46;6.45;;;3.95;;
32864;SDS011;19219;44.500;11.188;2023-04-06T05:13:13;4.63;;;3.88;;
32864;SDS011;19219;44.500;11.188;2023-04-06T05:15:39;7.10;;;3.65;;
32864;SDS011;19219;44.500;11.188;2023-04-06T05:18:06;10.82;;;3.75;;
32864;SDS011;19219;44.500;11.188;2023-04-06T05:20:32;5.03;;;3.65;;
32864;SDS011;19219;44.500;11.188;2023-04-06T05:22:58;3.80;;;3.47;;
32864;SDS011;19219;44.500;11.188;2023-04-06T05:25:24;5.75;;;4.00;;
32864;SDS011;19219;44.500;11.188;2023-04-06T05:27:50;6.70;;;3.22;;
32864;SDS011;19219;44.500;11.188;2023-04-06T05:30:16;5.40;;;3.90;;
32864;SDS011;19219;44.500;11.188;2023-04-06T05:32:42;7.68;;;4.80;;
32864;SDS011;19219;44.500;11.188;2023-04-06T05:35:09;4.68;;;3.53;;
32864;SDS011;19219;44.500;11.188;2023-04-06T05:37:35;10.00;;;4.40;;
32864;SDS011;19219;44.500;11.188;2023-04-06T05:40:00;9.02;;;5.40;;
32864;SDS011;19219;44.500;11.188;2023-04-06T05:42:26;12.38;;;7.28;;
32864;SDS011;19219;44.500;11.188;2023-04-06T05:44:52;15.05;;;6.72;;
32864;SDS011;19219;44.500;11.188;2023-04-06T05:47:18;8.00;;;6.35;;
32864;SDS011;19219;44.500;11.188;2023-04-06T05:49:43;15.40;;;7.75;;
32864;SDS011;19219;44.500;11.188;2023-04-06T05:52:09;15.57;;;9.68;;
32864;SDS011;19219;44.500;11.188;2023-04-06T05:54:36;14.88;;;7.18;;
32864;SDS011;19219;44.500;11.188;2023-04-06T05:57:02;9.65;;;5.65;;
32864;SDS011;19219;44.500;11.188;2023-04-06T05:59:29;9.85;;;6.05;;
32864;SDS011;19219;44.500;11.188;2023-04-06T06:01:56;9.75;;;6.85;;
32864;SDS011;19219;44.500;11.188;2023-04-06T06:04:21;15.43;;;6.35;;
32864;SDS011;19219;44.500;11.188;2023-04-06T06:06:47;12.20;;;6.50;;
32864;SDS011;19219;44.500;11.188;2023-04-06T06:09:13;12.07;;;7.05;;
32864;SDS011;19219;44.500;11.188;2023-04-06T06:11:39;15.98;;;7.43;;
32864;SDS011;19219;44.500;11.188;2023-04-06T06:14:06;11.30;;;7.03;;
32864;SDS011;19219;44.500;11.188;2023-04-06T06:16:31;9.45;;;6.68;;
32864;SDS011;19219;44.500;11.188;2023-04-06T06:18:57;13.20;;;7.63;;
32864;SDS011;19219;44.500;11.188;2023-04-06T06:21:23;13.05;;;6.30;;
32864;SDS011;19219;44.500;11.188;2023-04-06T06:23:49;12.02;;;7.22;;
32864;SDS011;19219;44.500;11.188;2023-04-06T06:26:15;9.52;;;6.35;;
32864;SDS011;19219;44.500;11.188;2023-04-06T06:28:41;13.20;;;6.65;;
32864;SDS011;19219;44.500;11.188;2023-04-06T06:31:07;9.70;;;6.13;;
32864;SDS011;19219;44.500;11.188;2023-04-06T06:33:32;9.70;;;5.82;;
32864;SDS011;19219;44.500;11.188;2023-04-06T06:35:58;7.97;;;6.80;;
32864;SDS011;19219;44.500;11.188;2023-04-06T06:38:24;11.25;;;6.93;;
32864;SDS011;19219;44.500;11.188;2023-04-06T06:40:50;8.93;;;6.88;;
32864;SDS011;19219;44.500;11.188;2023-04-06T06:43:16;9.07;;;6.75;;
32864;SDS011;19219;44.500;11.188;2023-04-06T06:45:41;17.23;;;7.13;;
32864;SDS011;19219;44.500;11.188;2023-04-06T06:48:07;14.00;;;7.68;;
32864;SDS011;19219;44.500;11.188;2023-04-06T06:50:33;21.15;;;8.88;;
32864;SDS011;19219;44.500;11.188;2023-04-06T06:52:59;33.33;;;23.48;;
32864;SDS011;19219;44.500;11.188;2023-04-06T06:55:24;51.20;;;32.78;;
32864;SDS011;19219;44.500;11.188;2023-04-06T06:57:51;55.80;;;32.78;;
32864;SDS011;19219;44.500;11.188;2023-04-06T07:00:18;71.25;;;41.47;;
32864;SDS011;19219;44.500;11.188;2023-04-06T07:02:46;49.00;;;31.33;;
32864;SDS011;19219;44.500;11.188;2023-04-06T07:05:12;50.67;;;31.92;;
32864;SDS011;19219;44.500;11.188;2023-04-06T07:07:38;46.35;;;28.05;;
32864;SDS011;19219;44.500;11.188;2023-04-06T07:10:04;38.70;;;24.50;;
32864;SDS011;19219;44.500;11.188;2023-04-06T07:12:30;27.95;;;17.60;;
32864;SDS011;19219;44.500;11.188;2023-04-06T07:14:56;21.27;;;14.45;;
32864;SDS011;19219;44.500;11.188;2023-04-06T07:17:22;19.92;;;13.27;;
32864;SDS011;19219;44.500;11.188;2023-04-06T07:19:48;18.35;;;12.60;;
32864;SDS011;19219;44.500;11.188;2023-04-06T07:22:13;14.00;;;11.57;;
32864;SDS011;19219;44.500;11.188;2023-04-06T07:24:39;12.85;;;10.27;;
32864;SDS011;19219;44.500;11.188;2023-04-06T07:27:05;12.13;;;9.48;;
32864;SDS011;19219;44.500;11.188;2023-04-06T07:29:31;17.02;;;11.13;;
32864;SDS011;19219;44.500;11.188;2023-04-06T07:31:56;12.82;;;10.82;;
32864;SDS011;19219;44.500;11.188;2023-04-06T07:34:22;18.05;;;14.23;;
32864;SDS011;19219;44.500;11.188;2023-04-06T07:36:48;17.27;;;13.45;;
32864;SDS011;19219;44.500;11.188;2023-04-06T07:39:14;15.38;;;11.73;;
32864;SDS011;19219;44.500;11.188;2023-04-06T07:41:40;15.27;;;12.65;;
32864;SDS011;19219;44.500;11.188;2023-04-06T07:44:06;20.70;;;13.32;;
32864;SDS011;19219;44.500;11.188;2023-04-06T07:46:31;19.85;;;14.13;;
32864;SDS011;19219;44.500;11.188;2023-04-06T07:48:57;18.73;;;13.02;;
32864;SDS011;19219;44.500;11.188;2023-04-06T07:51:24;19.75;;;13.57;;
32864;SDS011;19219;44.500;11.188;2023-04-06T07:53:50;18.38;;;13.95;;
32864;SDS011;19219;44.500;11.188;2023-04-06T07:56:16;16.88;;;11.35;;
32864;SDS011;19219;44.500;11.188;2023-04-06T07:58:42;18.30;;;11.23;;
32864;SDS011;19219;44.500;11.188;2023-04-06T08:01:08;15.23;;;11.30;;
32864;SDS011;19219;44.500;11.188;2023-04-06T08:03:34;13.20;;;10.43;;
32864;SDS011;19219;44.500;11.188;2023-04-06T08:06:01;13.52;;;9.32;;
32864;SDS011;19219;44.500;11.188;2023-04-06T08:08:27;9.35;;;8.10;;
32864;SDS011;19219;44.500;11.188;2023-04-06T08:10:53;11.20;;;7.47;;
32864;SDS011;19219;44.500;11.188;2023-04-06T08:13:19;6.88;;;5.75;;
32864;SDS011;19219;44.500;11.188;2023-04-06T08:15:45;8.43;;;5.55;;
32864;SDS011;19219;44.500;11.188;2023-04-06T08:18:11;10.10;;;6.25;;
32864;SDS011;19219;44.500;11.188;2023-04-06T08:20:37;6.45;;;5.70;;
32864;SDS011;19219;44.500;11.188;2023-04-06T08:23:03;7.05;;;5.00;;
32864;SDS011;19219;44.500;11.188;2023-04-06T08:25:29;7.00;;;5.47;;
32864;SDS011;19219;44.500;11.188;2023-04-06T08:27:55;7.63;;;5.65;;
32864;SDS011;19219;44.500;11.188;2023-04-06T08:30:21;8.90;;;5.20;;
32864;SDS011;19219;44.500;11.188;2023-04-06T08:32:46;6.85;;;4.75;;
32864;SDS011;19219;44.500;11.188;2023-04-06T08:35:12;10.18;;;5.35;;
32864;SDS011;19219;44.500;11.188;2023-04-06T08:37:38;6.88;;;5.72;;
32864;SDS011;19219;44.500;11.188;2023-04-06T08:40:04;8.80;;;5.47;;
32864;SDS011;19219;44.500;11.188;2023-04-06T08:42:33;4.97;;;4.47;;
32864;SDS011;19219;44.500;11.188;2023-04-06T08:45:08;11.02;;;5.30;;
32864;SDS011;19219;44.500;11.188;2023-04-06T08:47:35;7.65;;;5.18;;
32864;SDS011;19219;44.500;11.188;2023-04-06T08:50:05;8.30;;;4.97;;
32864;SDS011;19219;44.500;11.188;2023-04-06T08:52:32;6.10;;;5.18;;
32864;SDS011;19219;44.500;11.188;2023-04-06T08:54:59;5.80;;;4.68;;
32864;SDS011;19219;44.500;11.188;2023-04-06T08:57:26;5.95;;;4.93;;
32864;SDS011;19219;44.500;11.188;2023-04-06T08:59:52;7.57;;;4.97;;
32864;SDS011;19219;44.500;11.188;2023-04-06T09:02:19;8.45;;;5.22;;
32864;SDS011;19219;44.500;11.188;2023-04-06T09:04:45;6.22;;;4.75;;
32864;SDS011;19219;44.500;11.188;2023-04-06T09:07:18;4.90;;;4.50;;
32864;SDS011;19219;44.500;11.188;2023-04-06T09:09:43;14.57;;;5.25;;
32864;SDS011;19219;44.500;11.188;2023-04-06T09:12:28;5.88;;;3.55;;
32864;SDS011;19219;44.500;11.188;2023-04-06T09:14:55;4.85;;;4.25;;
32864;SDS011;19219;44.500;11.188;2023-04-06T09:17:22;5.38;;;4.72;;
32864;SDS011;19219;44.500;11.188;2023-04-06T09:19:57;4.95;;;4.50;;
32864;SDS011;19219;44.500;11.188;2023-04-06T09:22:23;5.55;;;4.30;;
32864;SDS011;19219;44.500;11.188;2023-04-06T09:24:53;7.05;;;4.90;;
32864;SDS011;19219;44.500;11.188;2023-04-06T09:30:10;6.63;;;4.88;;
32864;SDS011;19219;44.500;11.188;2023-04-06T09:32:51;5.90;;;4.78;;
32864;SDS011;19219;44.500;11.188;2023-04-06T09:35:19;9.32;;;5.65;;
32864;SDS011;19219;44.500;11.188;2023-04-06T09:37:45;6.70;;;4.20;;
32864;SDS011;19219;44.500;11.188;2023-04-06T09:40:12;8.05;;;5.15;;
32864;SDS011;19219;44.500;11.188;2023-04-06T09:42:41;8.07;;;5.82;;
32864;SDS011;19219;44.500;11.188;2023-04-06T09:45:08;10.75;;;6.60;;
32864;SDS011;19219;44.500;11.188;2023-04-06T09:47:36;10.20;;;7.15;;
32864;SDS011;19219;44.500;11.188;2023-04-06T09:50:02;7.20;;;6.10;;
32864;SDS011;19219;44.500;11.188;2023-04-06T09:52:38;8.18;;;6.05;;
32864;SDS011;19219;44.500;11.188;2023-04-06T09:55:25;7.13;;;6.13;;
32864;SDS011;19219;44.500;11.188;2023-04-06T10:00:32;10.63;;;6.07;;
32864;SDS011;19219;44.500;11.188;2023-04-06T10:08:24;9.40;;;5.95;;
32864;SDS011;19219;44.500;11.188;2023-04-06T10:10:53;11.45;;;6.43;;
32864;SDS011;19219;44.500;11.188;2023-04-06T10:13:20;8.27;;;6.38;;
32864;SDS011;19219;44.500;11.188;2023-04-06T10:15:46;12.15;;;6.63;;
32864;SDS011;19219;44.500;11.188;2023-04-06T10:18:13;9.70;;;7.15;;
32864;SDS011;19219;44.500;11.188;2023-04-06T10:20:41;11.07;;;7.85;;
32864;SDS011;19219;44.500;11.188;2023-04-06T10:23:15;23.33;;;14.77;;
32864;SDS011;19219;44.500;11.188;2023-04-06T10:25:53;10.38;;;7.07;;
32864;SDS011;19219;44.500;11.188;2023-04-06T10:28:19;11.00;;;7.65;;
32864;SDS011;19219;44.500;11.188;2023-04-06T10:30:45;11.70;;;7.43;;
32864;SDS011;19219;44.500;11.188;2023-04-06T10:33:15;14.35;;;7.97;;
32864;SDS011;19219;44.500;11.188;2023-04-06T10:35:42;9.57;;;7.32;;
32864;SDS011;19219;44.500;11.188;2023-04-06T10:38:09;10.45;;;7.40;;
32864;SDS011;19219;44.500;11.188;2023-04-06T10:40:35;11.23;;;6.63;;
32864;SDS011;19219;44.500;11.188;2023-04-06T10:43:07;11.25;;;7.60;;
32864;SDS011;19219;44.500;11.188;2023-04-06T10:45:38;11.43;;;7.13;;
32864;SDS011;19219;44.500;11.188;2023-04-06T10:48:16;12.90;;;7.80;;
32864;SDS011;19219;44.500;11.188;2023-04-06T10:50:44;11.43;;;7.40;;
32864;SDS011;19219;44.500;11.188;2023-04-06T10:53:11;11.10;;;7.47;;
32864;SDS011;19219;44.500;11.188;2023-04-06T10:55:45;8.15;;;6.38;;
32864;SDS011;19219;44.500;11.188;2023-04-06T10:58:11;11.30;;;8.20;;
32864;SDS011;19219;44.500;11.188;2023-04-06T11:00:43;11.23;;;8.15;;
32864;SDS011;19219;44.500;11.188;2023-04-06T11:03:12;8.95;;;7.70;;
32864;SDS011;19219;44.500;11.188;2023-04-06T11:05:38;10.45;;;7.82;;
32864;SDS011;19219;44.500;11.188;2023-04-06T11:08:08;13.18;;;7.72;;
32864;SDS011;19219;44.500;11.188;2023-04-06T11:10:33;22.05;;;12.52;;
32864;SDS011;19219;44.500;11.188;2023-04-06T11:12:59;13.32;;;9.05;;
32864;SDS011;19219;44.500;11.188;2023-04-06T11:15:25;12.85;;;7.68;;
32864;SDS011;19219;44.500;11.188;2023-04-06T11:17:51;13.25;;;7.95;;
32864;SDS011;19219;44.500;11.188;2023-04-06T11:20:16;14.45;;;7.95;;
32864;SDS011;19219;44.500;11.188;2023-04-06T11:22:47;11.90;;;7.60;;
32864;SDS011;19219;44.500;11.188;2023-04-06T11:25:14;18.00;;;8.20;;
32864;SDS011;19219;44.500;11.188;2023-04-06T11:27:41;10.90;;;7.78;;
32864;SDS011;19219;44.500;11.188;2023-04-06T11:30:08;14.35;;;8.30;;
32864;SDS011;19219;44.500;11.188;2023-04-06T11:32:40;12.15;;;7.47;;
32864;SDS011;19219;44.500;11.188;2023-04-06T11:35:10;13.35;;;7.40;;
32864;SDS011;19219;44.500;11.188;2023-04-06T11:37:37;11.07;;;7.82;;
32864;SDS011;19219;44.500;11.188;2023-04-06T11:40:03;13.45;;;7.45;;
32864;SDS011;19219;44.500;11.188;2023-04-06T11:42:34;10.65;;;7.60;;
32864;SDS011;19219;44.500;11.188;2023-04-06T11:45:00;10.80;;;7.65;;
32864;SDS011;19219;44.500;11.188;2023-04-06T11:47:30;12.27;;;8.55;;
32864;SDS011;19219;44.500;11.188;2023-04-06T11:50:09;12.27;;;7.63;;
32864;SDS011;19219;44.500;11.188;2023-04-06T11:52:37;17.38;;;8.75;;
32864;SDS011;19219;44.500;11.188;2023-04-06T11:55:11;13.70;;;8.10;;
32864;SDS011;19219;44.500;11.188;2023-04-06T11:57:38;9.52;;;7.53;;
32864;SDS011;19219;44.500;11.188;2023-04-06T12:00:04;12.48;;;9.35;;
32864;SDS011;19219;44.500;11.188;2023-04-06T12:02:31;15.10;;;8.25;;
32864;SDS011;19219;44.500;11.188;2023-04-06T12:04:57;36.20;;;19.95;;
32864;SDS011;19219;44.500;11.188;2023-04-06T12:07:23;10.80;;;8.18;;
32864;SDS011;19219;44.500;11.188;2023-04-06T12:09:48;13.30;;;8.68;;
32864;SDS011;19219;44.500;11.188;2023-04-06T12:12:14;15.70;;;8.05;;
32864;SDS011;19219;44.500;11.188;2023-04-06T12:14:40;13.30;;;9.55;;
32864;SDS011;19219;44.500;11.188;2023-04-06T12:17:05;12.88;;;8.95;;
32864;SDS011;19219;44.500;11.188;2023-04-06T12:19:31;16.52;;;8.85;;
32864;SDS011;19219;44.500;11.188;2023-04-06T12:21:57;14.23;;;8.20;;
32864;SDS011;19219;44.500;11.188;2023-04-06T12:24:23;12.32;;;8.23;;
32864;SDS011;19219;44.500;11.188;2023-04-06T12:26:48;12.10;;;7.47;;
32864;SDS011;19219;44.500;11.188;2023-04-06T12:29:14;11.55;;;8.73;;
32864;SDS011;19219;44.500;11.188;2023-04-06T12:31:40;13.95;;;8.55;;
32864;SDS011;19219;44.500;11.188;2023-04-06T12:34:07;13.38;;;7.75;;
32864;SDS011;19219;44.500;11.188;2023-04-06T12:36:33;13.82;;;10.07;;
32864;SDS011;19219;44.500;11.188;2023-04-06T12:39:00;12.63;;;9.27;;
32864;SDS011;19219;44.500;11.188;2023-04-06T12:41:29;14.82;;;8.00;;
32864;SDS011;19219;44.500;11.188;2023-04-06T12:43:55;10.55;;;7.97;;
32864;SDS011;19219;44.500;11.188;2023-04-06T12:46:21;12.13;;;7.25;;
32864;SDS011;19219;44.500;11.188;2023-04-06T12:48:48;14.00;;;8.52;;
32864;SDS011;19219;44.500;11.188;2023-04-06T12:51:13;13.23;;;7.63;;
32864;SDS011;19219;44.500;11.188;2023-04-06T12:53:39;8.88;;;7.40;;
32864;SDS011;19219;44.500;11.188;2023-04-06T12:56:14;11.18;;;7.80;;
32864;SDS011;19219;44.500;11.188;2023-04-06T12:58:42;11.65;;;8.02;;
32864;SDS011;19219;44.500;11.188;2023-04-06T13:01:08;13.52;;;7.75;;
32864;SDS011;19219;44.500;11.188;2023-04-06T13:03:35;12.40;;;7.60;;
32864;SDS011;19219;44.500;11.188;2023-04-06T13:06:01;9.82;;;7.68;;
32864;SDS011;19219;44.500;11.188;2023-04-06T13:08:27;10.77;;;8.27;;
32864;SDS011;19219;44.500;11.188;2023-04-06T13:10:53;12.32;;;8.40;;
32864;SDS011;19219;44.500;11.188;2023-04-06T13:13:23;13.55;;;8.70;;
32864;SDS011;19219;44.500;11.188;2023-04-06T13:15:50;27.08;;;15.18;;
32864;SDS011;19219;44.500;11.188;2023-04-06T13:18:23;13.90;;;9.15;;
32864;SDS011;19219;44.500;11.188;2023-04-06T13:20:48;10.27;;;7.85;;
32864;SDS011;19219;44.500;11.188;2023-04-06T13:23:14;12.45;;;8.50;;
32864;SDS011;19219;44.500;11.188;2023-04-06T13:25:41;15.90;;;8.40;;
32864;SDS011;19219;44.500;11.188;2023-04-06T13:28:07;12.18;;;8.60;;
32864;SDS011;19219;44.500;11.188;2023-04-06T13:30:33;15.10;;;8.10;;
32864;SDS011;19219;44.500;11.188;2023-04-06T13:32:59;13.43;;;8.95;;
32864;SDS011;19219;44.500;11.188;2023-04-06T13:35:25;11.80;;;7.50;;
32864;SDS011;19219;44.500;11.188;2023-04-06T13:37:51;13.30;;;8.75;;
32864;SDS011;19219;44.500;11.188;2023-04-06T13:40:17;12.40;;;8.07;;
32864;SDS011;19219;44.500;11.188;2023-04-06T13:42:43;10.68;;;7.55;;
32864;SDS011;19219;44.500;11.188;2023-04-06T13:45:10;15.27;;;9.02;;
32864;SDS011;19219;44.500;11.188;2023-04-06T13:47:36;9.65;;;7.82;;
32864;SDS011;19219;44.500;11.188;2023-04-06T13:50:02;13.95;;;9.00;;
32864;SDS011;19219;44.500;11.188;2023-04-06T13:52:28;13.30;;;8.70;;
32864;SDS011;19219;44.500;11.188;2023-04-06T13:54:54;10.93;;;7.72;;
32864;SDS011;19219;44.500;11.188;2023-04-06T13:57:20;12.63;;;8.43;;
32864;SDS011;19219;44.500;11.188;2023-04-06T13:59:45;18.27;;;9.07;;
32864;SDS011;19219;44.500;11.188;2023-04-06T14:02:11;17.17;;;8.75;;
32864;SDS011;19219;44.500;11.188;2023-04-06T14:04:37;15.25;;;8.98;;
32864;SDS011;19219;44.500;11.188;2023-04-06T14:07:03;14.18;;;9.02;;
32864;SDS011;19219;44.500;11.188;2023-04-06T14:09:32;12.88;;;7.30;;
32864;SDS011;19219;44.500;11.188;2023-04-06T14:11:58;12.23;;;8.00;;
32864;SDS011;19219;44.500;11.188;2023-04-06T14:14:24;9.43;;;7.97;;
32864;SDS011;19219;44.500;11.188;2023-04-06T14:16:50;11.52;;;8.05;;
32864;SDS011;19219;44.500;11.188;2023-04-06T14:19:16;9.90;;;7.80;;
32864;SDS011;19219;44.500;11.188;2023-04-06T14:21:45;11.68;;;8.25;;
32864;SDS011;19219;44.500;11.188;2023-04-06T14:24:12;9.30;;;7.32;;
32864;SDS011;19219;44.500;11.188;2023-04-06T14:26:39;13.30;;;7.80;;
32864;SDS011;19219;44.500;11.188;2023-04-06T14:29:06;11.38;;;9.20;;
32864;SDS011;19219;44.500;11.188;2023-04-06T14:31:32;12.55;;;7.57;;
32864;SDS011;19219;44.500;11.188;2023-04-06T14:34:00;15.27;;;8.35;;